Time;durP1;ratioP1;P1;durP2;ratioP2;P2;SDS_P1;SDS_P2;PMS_P1;PMS_P2;Temp;Humidity;BMP_temperature;BMP_pressure;BME280_temperature;BME280_humidity;BME280_pressure;Samples;Min_cycle;Max_cycle;Signal;HPM_P1;HPM_P2
2021/06/11 00:00:40;;;;;;;17.93;14.00;;;17.40;96.90;;;;;;5091332;27;20041;-62
2021/06/11 00:03:05;;;;;;;18.23;13.40;;;17.40;97.00;;;;;;5091189;27;20112;-60
2021/06/11 00:05:31;;;;;;;17.87;14.10;;;17.40;96.90;;;;;;5090973;27;20031;-62
2021/06/11 00:07:57;;;;;;;21.27;14.40;;;17.40;96.80;;;;;;5091573;27;20052;-59
2021/06/11 00:10:23;;;;;;;19.83;14.73;;;17.40;96.80;;;;;;5090820;27;20043;-62
2021/06/11 00:12:49;;;;;;;20.17;14.90;;;17.40;96.80;;;;;;5090823;27;20044;-62
2021/06/11 00:15:15;;;;;;;20.20;14.67;;;17.30;97.20;;;;;;5091150;27;20032;-62
2021/06/11 00:17:41;;;;;;;20.50;15.03;;;17.40;97.30;;;;;;5090895;27;20049;-61
2021/06/11 00:20:08;;;;;;;21.80;15.83;;;17.30;97.60;;;;;;5160255;27;20031;-62
2021/06/11 00:22:34;;;;;;;20.17;15.07;;;17.30;98.00;;;;;;5091101;27;20029;-62
2021/06/11 00:25:00;;;;;;;18.73;15.20;;;17.30;98.20;;;;;;5090933;27;20037;-62
2021/06/11 00:27:26;;;;;;;23.27;16.50;;;17.20;98.10;;;;;;5090834;27;20029;-61
2021/06/11 00:29:51;;;;;;;23.43;16.97;;;17.20;98.10;;;;;;5090901;27;20052;-60
2021/06/11 00:32:17;;;;;;;22.80;15.87;;;17.20;98.50;;;;;;5091074;27;20039;-61
2021/06/11 00:34:43;;;;;;;23.53;17.07;;;17.20;98.30;;;;;;5090755;27;20064;-62
2021/06/11 00:37:09;;;;;;;24.60;18.13;;;17.20;98.50;;;;;;5091049;27;20065;-61
2021/06/11 00:39:35;;;;;;;23.53;16.30;;;17.10;98.50;;;;;;5090360;27;20044;-61
2021/06/11 00:42:01;;;;;;;22.77;16.50;;;17.10;98.50;;;;;;5091036;27;20062;-62
2021/06/11 00:44:28;;;;;;;23.10;17.27;;;17.00;99.20;;;;;;5090869;27;20104;-60
2021/06/11 00:46:54;;;;;;;21.40;16.60;;;17.00;99.20;;;;;;5090361;27;20077;-61
2021/06/11 00:49:20;;;;;;;21.50;16.63;;;17.00;99.50;;;;;;5090820;27;20040;-63
2021/06/11 00:51:46;;;;;;;22.77;17.07;;;17.00;99.40;;;;;;5091047;27;20092;-62
2021/06/11 00:54:12;;;;;;;21.53;16.97;;;17.00;99.20;;;;;;5090659;27;20036;-60
2021/06/11 00:56:39;;;;;;;22.17;17.10;;;16.90;99.20;;;;;;5090454;27;20032;-62
2021/06/11 00:59:04;;;;;;;18.03;14.17;;;16.90;99.30;;;;;;5090756;27;20033;-59
2021/06/11 01:01:30;;;;;;;13.73;12.03;;;16.90;98.80;;;;;;5160401;27;20070;-61
2021/06/11 01:03:56;;;;;;;18.57;13.63;;;16.80;97.70;;;;;;5090473;27;20029;-62
2021/06/11 01:06:22;;;;;;;20.93;16.00;;;16.70;97.70;;;;;;5090623;27;20048;-62
2021/06/11 01:08:50;;;;;;;18.40;15.60;;;16.70;98.40;;;;;;5090445;27;20040;-62
2021/06/11 01:11:17;;;;;;;22.37;17.00;;;16.60;98.70;;;;;;5090405;27;20096;-61
2021/06/11 01:13:46;;;;;;;23.00;17.17;;;16.60;99.30;;;;;;5090031;27;20045;-61
2021/06/11 01:16:12;;;;;;;23.13;16.57;;;16.60;99.90;;;;;;5090580;27;20044;-61
2021/06/11 01:18:38;;;;;;;19.57;15.53;;;16.50;99.90;;;;;;5159979;27;20037;-62
2021/06/11 01:21:04;;;;;;;21.27;15.67;;;16.50;99.90;;;;;;5090202;27;20040;-62
2021/06/11 01:24:12;;;;;;;22.63;17.13;;;16.40;99.90;;;;;;5090050;27;20028;-62
2021/06/11 01:26:42;;;;;;;21.03;16.93;;;16.40;99.90;;;;;;5093792;27;20037;-61
2021/06/11 01:29:11;;;;;;;21.50;16.77;;;16.40;99.90;;;;;;5093677;27;20032;-59
2021/06/11 01:31:40;;;;;;;20.73;15.97;;;16.30;99.90;;;;;;5093726;27;20028;-62
2021/06/11 01:34:12;;;;;;;19.27;15.10;;;16.20;99.90;;;;;;5093655;27;20048;-61
2021/06/11 01:36:45;;;;;;;23.93;15.57;;;16.10;99.90;;;;;;5093871;27;20043;-60
2021/06/11 01:39:15;;;;;;;18.33;15.70;;;16.00;99.90;;;;;;5093220;27;20041;-62
2021/06/11 01:41:42;;;;;;;26.37;18.80;;;16.00;99.90;;;;;;5093315;27;20044;-62
2021/06/11 01:44:10;;;;;;;25.03;19.17;;;16.00;99.90;;;;;;5093693;27;20029;-62
2021/06/11 01:46:38;;;;;;;25.37;17.63;;;15.90;99.90;;;;;;5093524;27;20056;-63
2021/06/11 01:49:05;;;;;;;24.77;19.10;;;15.90;99.90;;;;;;5163596;27;20092;-63
2021/06/11 01:51:34;;;;;;;22.00;17.80;;;15.90;99.90;;;;;;5093412;27;20032;-63
2021/06/11 01:54:02;;;;;;;23.83;18.47;;;15.90;99.90;;;;;;5093865;27;20061;-61
2021/06/11 01:56:28;;;;;;;22.03;17.43;;;15.90;99.90;;;;;;5093749;27;20065;-60
2021/06/11 01:58:55;;;;;;;24.00;18.63;;;15.80;99.90;;;;;;5093127;27;20326;-63
2021/06/11 02:01:21;;;;;;;22.77;17.93;;;15.80;99.90;;;;;;5093071;27;20051;-63
2021/06/11 02:03:49;;;;;;;20.37;17.43;;;15.80;99.90;;;;;;5093380;27;20028;-60
2021/06/11 02:06:17;;;;;;;25.70;18.33;;;15.80;99.90;;;;;;5093317;27;20131;-61
2021/06/11 02:08:48;;;;;;;23.87;17.57;;;15.70;99.90;;;;;;5092805;27;20062;-62
2021/06/11 02:11:15;;;;;;;24.40;18.57;;;15.70;99.90;;;;;;5093442;27;20317;-62
2021/06/11 02:13:46;;;;;;;26.53;20.20;;;15.60;99.90;;;;;;5092990;27;20033;-63
2021/06/11 02:16:14;;;;;;;25.07;19.73;;;15.60;99.90;;;;;;5092785;27;20032;-63
2021/06/11 02:18:42;;;;;;;29.33;21.07;;;15.60;99.90;;;;;;5092966;27;20036;-63
2021/06/11 02:21:09;;;;;;;28.03;20.90;;;15.50;99.90;;;;;;5092781;27;20062;-62
2021/06/11 02:23:35;;;;;;;31.10;21.77;;;15.50;99.90;;;;;;5092944;27;20283;-63
2021/06/11 02:26:02;;;;;;;26.73;20.50;;;15.50;99.90;;;;;;5162660;27;20054;-63
2021/06/11 02:28:28;;;;;;;27.30;20.57;;;15.50;99.90;;;;;;5092823;27;20313;-62
2021/06/11 02:30:54;;;;;;;29.77;21.20;;;15.50;99.90;;;;;;5093022;27;20029;-60
2021/06/11 02:33:20;;;;;;;30.73;20.97;;;15.50;99.90;;;;;;5162611;27;20044;-63
2021/06/11 02:35:46;;;;;;;28.77;21.63;;;15.40;99.90;;;;;;5092529;27;20029;-63
2021/06/11 02:38:12;;;;;;;28.87;21.00;;;15.40;99.90;;;;;;5092655;27;20368;-60
2021/06/11 02:40:40;;;;;;;28.93;21.60;;;15.40;99.90;;;;;;5092824;27;20033;-59
2021/06/11 02:43:12;;;;;;;30.03;21.77;;;15.40;99.90;;;;;;5092255;27;20029;-63
2021/06/11 02:45:48;;;;;;;30.40;23.27;;;15.40;99.90;;;;;;5092706;27;20037;-62
2021/06/11 02:48:21;;;;;;;31.58;22.08;;;15.40;99.90;;;;;;5092827;27;20351;-60
2021/06/11 02:51:01;;;;;;;32.47;23.23;;;15.40;99.90;;;;;;5092606;27;20111;-61
2021/06/11 02:53:28;;;;;;;28.97;21.63;;;15.40;99.90;;;;;;5092693;27;20328;-60
2021/06/11 02:55:59;;;;;;;28.17;20.47;;;15.40;99.90;;;;;;5092235;27;20275;-63
2021/06/11 02:58:37;;;;;;;28.20;21.00;;;15.50;99.90;;;;;;5092293;27;20048;-62
2021/06/11 03:01:04;;;;;;;36.00;22.60;;;15.40;99.90;;;;;;5091949;27;20279;-63
2021/06/11 03:03:32;;;;;;;29.50;22.30;;;15.40;99.90;;;;;;5091908;27;20354;-63
2021/06/11 03:06:00;;;;;;;33.43;22.23;;;15.40;99.90;;;;;;5092280;27;20306;-63
2021/06/11 03:08:29;;;;;;;31.47;23.07;;;15.40;99.90;;;;;;5092737;27;20365;-60
2021/06/11 03:10:59;;;;;;;34.30;23.33;;;15.40;99.90;;;;;;5091898;27;20306;-62
2021/06/11 03:13:28;;;;;;;35.93;25.17;;;15.30;99.90;;;;;;5092215;27;20064;-59
2021/06/11 03:15:55;;;;;;;39.97;26.90;;;15.40;99.90;;;;;;5092056;27;20362;-60
2021/06/11 03:18:36;;;;;;;33.90;23.63;;;15.30;99.90;;;;;;5092074;27;20058;-63
2021/06/11 03:21:35;;;;;;;39.10;26.53;;;15.40;99.90;;;;;;5092123;27;20055;-63
2021/06/11 03:24:11;;;;;;;30.60;22.40;;;15.40;99.90;;;;;;5091914;27;20297;-62
2021/06/11 03:26:48;;;;;;;33.43;24.17;;;15.30;99.90;;;;;;5092008;27;20084;-62
2021/06/11 03:29:31;;;;;;;31.17;23.33;;;15.30;99.90;;;;;;5091640;27;20036;-62
2021/06/11 03:32:00;;;;;;;33.93;24.13;;;15.30;99.90;;;;;;5091740;27;20282;-62
2021/06/11 03:34:32;;;;;;;38.43;26.27;;;15.30;99.90;;;;;;5091898;27;20149;-63
2021/06/11 03:37:13;;;;;;;28.13;22.30;;;15.30;99.90;;;;;;5091771;27;20074;-60
2021/06/11 03:39:50;;;;;;;31.77;22.97;;;15.30;99.90;;;;;;5091594;27;20412;-60
2021/06/11 03:42:18;;;;;;;29.60;22.57;;;15.40;99.90;;;;;;5091760;27;20051;-63
2021/06/11 03:44:48;;;;;;;30.27;22.23;;;15.40;99.90;;;;;;5091980;27;20319;-60
2021/06/11 03:47:17;;;;;;;29.87;22.13;;;15.50;99.90;;;;;;5091118;27;20302;-63
2021/06/11 03:49:45;;;;;;;30.53;22.43;;;15.50;99.90;;;;;;5091446;27;20042;-60
2021/06/11 03:52:19;;;;;;;34.47;22.40;;;15.50;99.90;;;;;;5091879;27;20279;-63
2021/06/11 03:54:46;;;;;;;;;;;15.50;99.90;;;;;;5092129;27;20033;-63
2021/06/11 03:57:14;;;;;;;29.23;20.93;;;15.50;99.90;;;;;;5091276;27;19922;-63
2021/06/11 03:59:43;;;;;;;31.83;24.17;;;15.60;99.90;;;;;;5091662;27;20335;-63
2021/06/11 04:02:10;;;;;;;35.80;24.80;;;15.70;99.90;;;;;;5091505;27;20032;-63
2021/06/11 04:04:36;;;;;;;33.53;25.10;;;15.80;99.90;;;;;;5090902;27;20082;-62
2021/06/11 04:07:05;;;;;;;34.00;25.23;;;15.80;99.90;;;;;;5091198;27;20049;-61
2021/06/11 04:09:58;;;;;;;34.73;24.70;;;15.90;99.90;;;;;;5091244;27;20665;-63
2021/06/11 04:12:36;;;;;;;37.77;25.80;;;15.90;99.90;;;;;;5092326;27;20306;-63
2021/06/11 04:15:05;;;;;;;35.00;25.50;;;16.00;99.90;;;;;;5091422;27;20032;-63
2021/06/11 04:17:37;;;;;;;34.37;25.30;;;16.00;99.90;;;;;;5091194;27;20072;-63
2021/06/11 04:20:04;;;;;;;34.93;25.37;;;16.20;99.90;;;;;;5161400;27;20056;-62
2021/06/11 04:22:34;;;;;;;34.67;25.67;;;16.50;99.90;;;;;;5091354;27;20154;-63
2021/06/11 04:25:03;;;;;;;31.37;24.47;;;16.70;99.90;;;;;;5090936;27;20037;-62
2021/06/11 04:27:35;;;;;;;33.93;24.60;;;16.90;99.90;;;;;;5091279;27;20052;-63
2021/06/11 04:30:04;;;;;;;27.87;21.87;;;17.00;99.90;;;;;;5091312;27;20024;-63
2021/06/11 04:32:31;;;;;;;32.97;23.27;;;17.30;99.90;;;;;;5091211;27;20055;-63
2021/06/11 04:34:57;;;;;;;26.47;21.00;;;17.40;99.90;;;;;;5160265;27;20036;-61
2021/06/11 04:37:23;;;;;;;29.50;20.47;;;17.60;99.90;;;;;;5090762;27;20073;-63
2021/06/11 04:39:50;;;;;;;29.30;20.80;;;17.80;99.90;;;;;;5090854;27;20040;-63
2021/06/11 04:42:16;;;;;;;27.23;20.73;;;17.90;99.90;;;;;;5090819;27;20036;-59
2021/06/11 04:44:42;;;;;;;25.57;18.77;;;18.00;99.90;;;;;;5090715;27;20064;-61
2021/06/11 04:47:09;;;;;;;23.77;18.93;;;18.10;99.90;;;;;;5091184;27;20044;-58
2021/06/11 04:49:34;;;;;;;22.40;18.40;;;18.30;99.90;;;;;;5090923;27;20033;-61
2021/06/11 04:52:00;;;;;;;23.13;18.60;;;18.40;99.30;;;;;;5090291;27;20052;-61
2021/06/11 04:54:26;;;;;;;19.63;17.17;;;18.60;98.40;;;;;;5090889;27;20029;-59
2021/06/11 04:56:52;;;;;;;21.50;16.60;;;18.70;97.60;;;;;;5160436;27;20105;-61
2021/06/11 04:59:19;;;;;;;20.37;16.27;;;18.80;96.80;;;;;;5160166;27;20052;-61
2021/06/11 05:01:45;;;;;;;22.40;16.93;;;19.00;96.00;;;;;;5133677;27;20040;-58
2021/06/11 05:04:15;;;;;;;19.57;17.07;;;19.00;95.20;;;;;;5074023;27;20068;-58
2021/06/11 05:06:41;;;;;;;21.23;16.63;;;19.10;95.10;;;;;;5069735;27;20067;-62
2021/06/11 05:09:06;;;;;;;19.73;16.40;;;19.20;94.30;;;;;;5070446;27;20049;-63
2021/06/11 05:11:32;;;;;;;19.63;16.60;;;19.40;94.00;;;;;;5059258;28;20735;-65
2021/06/11 05:13:58;;;;;;;24.23;16.53;;;19.50;93.10;;;;;;5118867;27;20581;-64
2021/06/11 05:16:26;;;;;;;19.80;15.83;;;19.70;92.40;;;;;;5065242;27;20048;-64
2021/06/11 05:18:51;;;;;;;19.47;15.83;;;19.90;92.30;;;;;;5083363;27;20040;-64
2021/06/11 05:21:17;;;;;;;19.17;16.13;;;20.10;91.60;;;;;;5076248;27;20045;-65
2021/06/11 05:23:43;;;;;;;21.20;16.87;;;20.20;90.70;;;;;;5104914;27;20123;-65
2021/06/11 05:26:10;;;;;;;19.80;16.70;;;20.50;89.50;;;;;;5088613;27;20121;-65
2021/06/11 05:28:36;;;;;;;20.80;16.57;;;20.50;86.90;;;;;;5074713;27;20061;-67
2021/06/11 05:31:02;;;;;;;20.37;15.87;;;20.60;88.20;;;;;;5098816;27;20046;-65
2021/06/11 05:33:31;;;;;;;20.83;17.03;;;20.80;87.20;;;;;;5058350;28;20083;-63
2021/06/11 05:35:57;;;;;;;23.80;18.03;;;20.90;85.60;;;;;;5098182;27;20080;-65
2021/06/11 05:38:23;;;;;;;20.33;16.83;;;21.00;83.00;;;;;;5057023;28;20052;-65
2021/06/11 05:40:58;;;;;;;26.83;18.20;;;21.10;83.00;;;;;;5049497;27;20114;-63
2021/06/11 05:43:25;;;;;;;25.03;18.23;;;21.10;82.60;;;;;;5117156;27;20049;-66
2021/06/11 05:45:53;;;;;;;23.60;18.67;;;21.00;82.50;;;;;;5049462;28;20346;-65
2021/06/11 05:48:26;;;;;;;22.25;18.65;;;21.00;82.40;;;;;;5050724;28;20133;-65
2021/06/11 05:50:53;;;;;;;24.50;19.33;;;21.30;81.70;;;;;;5049484;28;20431;-66
2021/06/11 05:53:22;;;;;;;23.17;17.53;;;21.30;80.60;;;;;;5050052;28;20033;-66
2021/06/11 05:55:50;;;;;;;20.07;15.80;;;21.50;79.10;;;;;;5118018;27;20056;-68
2021/06/11 05:58:19;;;;;;;16.30;13.83;;;21.60;78.50;;;;;;5049498;28;20379;-67
2021/06/11 06:00:45;;;;;;;20.03;13.77;;;21.70;77.50;;;;;;5049488;28;20052;-66
2021/06/11 06:03:18;;;;;;;15.30;12.77;;;21.70;76.00;;;;;;5048932;28;20041;-67
2021/06/11 06:05:45;;;;;;;16.33;13.90;;;21.90;75.10;;;;;;5048561;28;20530;-66
2021/06/11 06:08:14;;;;;;;15.73;11.90;;;21.60;74.50;;;;;;5048469;28;20045;-66
2021/06/11 06:10:40;;;;;;;14.63;11.63;;;21.90;74.50;;;;;;5048537;28;20064;-67
2021/06/11 06:13:06;;;;;;;12.50;10.87;;;22.20;72.60;;;;;;5051462;28;20126;-58
2021/06/11 06:15:34;;;;;;;13.73;10.33;;;22.10;73.40;;;;;;5067258;28;20369;-61
2021/06/11 06:18:02;;;;;;;11.57;10.37;;;22.30;71.80;;;;;;5072661;28;20025;-63
2021/06/11 06:20:28;;;;;;;15.00;10.77;;;22.10;71.40;;;;;;5072487;28;20108;-63
2021/06/11 06:22:54;;;;;;;11.90;10.10;;;22.10;71.30;;;;;;5072931;28;20037;-59
2021/06/11 06:25:22;;;;;;;10.67;9.57;;;22.20;71.10;;;;;;5072335;28;20039;-63
2021/06/11 06:27:51;;;;;;;11.97;9.17;;;22.30;71.30;;;;;;5072355;28;20056;-60
2021/06/11 06:30:19;;;;;;;11.43;9.03;;;22.20;70.60;;;;;;5072328;28;20025;-62
2021/06/11 06:32:46;;;;;;;11.07;8.93;;;22.00;70.40;;;;;;5071899;28;20025;-63
2021/06/11 06:35:14;;;;;;;10.70;8.07;;;22.30;70.50;;;;;;5072136;28;20049;-62
2021/06/11 06:37:40;;;;;;;11.20;9.13;;;22.30;69.90;;;;;;5072148;28;20054;-62
2021/06/11 06:40:07;;;;;;;11.03;8.47;;;22.30;68.80;;;;;;5072102;28;20041;-63
2021/06/11 06:42:36;;;;;;;10.43;8.47;;;22.40;70.10;;;;;;5072170;28;20116;-60
2021/06/11 06:45:05;;;;;;;11.40;8.73;;;22.70;70.00;;;;;;5072124;28;20060;-60
2021/06/11 06:47:31;;;;;;;10.27;8.43;;;22.50;68.40;;;;;;5140549;27;20053;-62
2021/06/11 06:49:58;;;;;;;11.97;9.27;;;22.70;69.40;;;;;;5058390;28;20041;-63
2021/06/11 06:52:24;;;;;;;12.57;9.33;;;22.70;68.70;;;;;;5050298;27;20501;-64
2021/06/11 06:54:50;;;;;;;12.20;10.13;;;22.80;67.70;;;;;;5048231;28;20737;-67
2021/06/11 06:57:16;;;;;;;12.37;10.43;;;22.30;68.60;;;;;;5117130;27;20049;-63
2021/06/11 06:59:43;;;;;;;17.30;11.30;;;22.10;68.30;;;;;;5048288;27;20393;-65
2021/06/11 07:02:09;;;;;;;14.47;11.30;;;22.00;69.00;;;;;;5048348;27;20045;-64
2021/06/11 07:04:35;;;;;;;15.33;11.17;;;21.90;69.10;;;;;;5048530;27;20045;-64
2021/06/11 07:07:02;;;;;;;15.40;12.70;;;21.90;68.80;;;;;;5047861;28;20155;-64
2021/06/11 07:09:32;;;;;;;16.47;12.97;;;22.10;68.70;;;;;;5048361;28;20041;-64
2021/06/11 07:11:57;;;;;;;19.40;13.80;;;21.90;68.40;;;;;;5047754;28;20052;-64
2021/06/11 07:14:23;;;;;;;17.03;12.97;;;21.80;68.90;;;;;;5047536;28;20049;-65
2021/06/11 07:16:53;;;;;;;14.97;12.97;;;21.90;69.30;;;;;;5047728;27;20041;-65
2021/06/11 07:19:39;;;;;;;17.13;13.07;;;22.10;69.60;;;;;;5105300;27;20057;-65
2021/06/11 07:22:10;;;;;;;16.00;12.63;;;22.10;69.30;;;;;;5046771;28;20041;-63
2021/06/11 07:24:38;;;;;;;20.07;13.73;;;22.30;70.20;;;;;;5047958;27;20488;-65
2021/06/11 07:27:11;;;;;;;16.55;12.82;;;22.20;69.50;;;;;;5048035;27;20053;-63
2021/06/11 07:29:44;;;;;;;20.53;13.47;;;22.20;69.60;;;;;;5055080;28;20044;-65
2021/06/11 07:32:12;;;;;;;17.53;13.77;;;22.10;69.70;;;;;;5067645;28;20076;-65
2021/06/11 07:34:39;;;;;;;14.03;11.73;;;22.10;69.50;;;;;;5137027;27;20144;-66
2021/06/11 07:37:15;;;;;;;15.13;12.17;;;22.10;69.80;;;;;;5066389;27;20117;-66
2021/06/11 07:39:41;;;;;;;16.40;13.90;;;22.10;70.60;;;;;;5063028;28;20071;-67
2021/06/11 07:42:11;;;;;;;19.07;13.40;;;22.10;70.60;;;;;;5106376;27;20455;-63
2021/06/11 07:44:41;;;;;;;19.47;12.13;;;22.20;70.20;;;;;;5150611;27;20045;-63
2021/06/11 07:47:11;;;;;;;16.10;12.10;;;22.40;70.30;;;;;;5150801;27;20039;-63
2021/06/11 07:49:55;;;;;;;17.77;13.07;;;22.50;69.70;;;;;;5151893;27;20483;-63
2021/06/11 07:52:35;;;;;;;17.30;12.87;;;22.60;69.20;;;;;;5152610;27;20050;-64
2021/06/11 07:55:07;;;;;;;;;;;22.70;69.00;;;;;;5152446;27;20121;-62
2021/06/11 07:57:53;;;;;;;15.83;12.00;;;22.70;70.00;;;;;;5136689;27;19927;-63
2021/06/11 08:00:21;;;;;;;15.17;11.80;;;22.70;68.40;;;;;;5152051;27;20471;-64
2021/06/11 08:02:47;;;;;;;18.73;13.50;;;22.70;69.50;;;;;;5151768;27;20046;-65
2021/06/11 08:05:16;;;;;;;18.53;12.10;;;22.60;68.70;;;;;;5151752;27;20066;-65
2021/06/11 08:07:42;;;;;;;17.47;12.37;;;22.80;69.20;;;;;;5133191;27;20070;-65
2021/06/11 08:10:08;;;;;;;17.87;13.60;;;22.80;68.40;;;;;;5152003;27;20042;-64
2021/06/11 08:12:38;;;;;;;18.30;12.40;;;22.80;68.40;;;;;;5151600;27;20054;-66
2021/06/11 08:15:06;;;;;;;18.07;11.63;;;23.00;68.40;;;;;;5151520;27;20129;-65
2021/06/11 08:17:42;;;;;;;15.77;10.97;;;22.90;67.70;;;;;;5151353;27;20082;-65
2021/06/11 08:20:10;;;;;;;17.13;11.80;;;23.00;67.60;;;;;;5151585;27;20057;-65
2021/06/11 08:22:41;;;;;;;15.27;10.95;;;23.20;67.20;;;;;;5151634;27;20108;-65
2021/06/11 08:25:10;;;;;;;15.30;11.20;;;23.30;67.70;;;;;;5151456;27;20050;-65
2021/06/11 08:27:45;;;;;;;16.87;11.60;;;23.20;67.80;;;;;;5150677;27;20070;-65
2021/06/11 08:30:12;;;;;;;17.20;12.03;;;23.00;67.80;;;;;;5151297;27;20092;-64
2021/06/11 08:32:38;;;;;;;18.40;12.03;;;23.20;68.40;;;;;;5151121;27;20130;-64
2021/06/11 08:35:06;;;;;;;16.37;12.70;;;23.40;67.90;;;;;;5154756;27;20050;-62
2021/06/11 08:37:36;;;;;;;16.17;12.13;;;23.20;67.00;;;;;;5155229;27;20396;-61
2021/06/11 08:40:04;;;;;;;20.30;11.90;;;23.00;67.00;;;;;;5155303;27;20059;-61
2021/06/11 08:42:31;;;;;;;18.40;13.10;;;23.00;67.80;;;;;;5155728;27;20372;-62
2021/06/11 08:45:00;;;;;;;18.93;11.83;;;23.20;67.50;;;;;;5149481;27;20420;-62
2021/06/11 08:47:31;;;;;;;15.80;11.57;;;23.30;67.60;;;;;;5056804;27;20049;-61
2021/06/11 08:49:57;;;;;;;14.73;10.90;;;23.70;67.20;;;;;;5060843;27;20049;-67
2021/06/11 08:52:24;;;;;;;14.57;10.40;;;23.70;67.00;;;;;;5140255;27;20038;-62
2021/06/11 08:54:51;;;;;;;13.23;9.77;;;23.90;66.30;;;;;;5136224;27;20073;-63
2021/06/11 08:57:18;;;;;;;14.93;10.63;;;24.10;65.90;;;;;;5170270;27;20099;-60
2021/06/11 08:59:46;;;;;;;13.53;10.00;;;24.10;66.00;;;;;;5162786;27;20161;-60
2021/06/11 09:02:12;;;;;;;14.37;9.87;;;24.10;64.80;;;;;;5134419;27;20400;-60
2021/06/11 09:04:47;;;;;;;16.33;10.63;;;24.30;64.50;;;;;;5135826;27;20076;-69
2021/06/11 09:07:28;;;;;;;13.27;9.50;;;24.40;63.80;;;;;;5159982;27;20065;-61
2021/06/11 09:10:03;;;;;;;12.20;9.17;;;24.70;64.20;;;;;;5178557;27;20035;-60
2021/06/11 09:12:42;;;;;;;14.50;11.30;;;24.70;63.20;;;;;;5178638;27;20033;-61
2021/06/11 09:15:27;;;;;;;16.07;12.13;;;24.60;63.20;;;;;;5163853;27;20061;-61
2021/06/11 09:18:22;;;;;;;13.87;10.90;;;24.30;63.60;;;;;;5163353;27;20047;-60
2021/06/11 09:21:31;;;;;;;13.73;10.03;;;24.30;62.80;;;;;;5163632;27;20046;-60
2021/06/11 09:27:12;;;;;;;12.60;9.90;;;24.20;63.80;;;;;;5150415;27;20467;-63
2021/06/11 09:29:49;;;;;;;14.10;9.60;;;24.50;63.50;;;;;;5154818;27;20045;-63
2021/06/11 09:32:22;;;;;;;12.57;9.23;;;24.50;62.30;;;;;;5152691;27;20081;-63
2021/06/11 09:35:07;;;;;;;15.17;9.50;;;24.90;61.80;;;;;;5148771;27;20047;-62
2021/06/11 09:37:40;;;;;;;13.70;10.50;;;25.10;61.30;;;;;;5056085;27;20097;-62
2021/06/11 09:40:16;;;;;;;;;;;25.10;60.40;;;;;;5054593;28;20101;-62
2021/06/11 09:42:51;;;;;;;15.20;9.50;;;24.90;61.30;;;;;;5046915;28;19946;-63
2021/06/11 09:45:19;;;;;;;11.10;9.07;;;25.00;61.00;;;;;;5046735;27;20457;-62
2021/06/11 09:47:51;;;;;;;11.17;8.77;;;24.90;61.00;;;;;;5048548;28;20049;-63
2021/06/11 09:50:23;;;;;;;11.83;8.37;;;24.90;60.40;;;;;;5048967;27;20496;-61
2021/06/11 09:53:04;;;;;;;10.57;7.63;;;25.20;60.20;;;;;;5055523;27;20073;-63
2021/06/11 09:55:35;;;;;;;10.83;7.67;;;25.20;60.00;;;;;;5049646;27;20616;-63
2021/06/11 09:58:16;;;;;;;13.63;8.63;;;25.30;59.30;;;;;;5049256;28;20535;-63
2021/06/11 10:00:54;;;;;;;11.87;8.83;;;25.50;58.80;;;;;;5049697;27;20041;-63
2021/06/11 10:03:30;;;;;;;9.20;7.60;;;25.30;58.60;;;;;;5052161;28;20072;-63
2021/06/11 10:05:58;;;;;;;10.07;8.07;;;25.20;58.90;;;;;;5049599;27;20172;-63
2021/06/11 10:08:24;;;;;;;12.23;8.03;;;25.10;59.30;;;;;;5050087;27;20486;-64
2021/06/11 10:10:53;;;;;;;9.83;8.40;;;25.20;59.60;;;;;;5053095;27;20071;-63
2021/06/11 10:13:20;;;;;;;15.33;8.57;;;25.20;58.80;;;;;;5051139;27;20041;-66
2021/06/11 10:15:47;;;;;;;10.90;8.20;;;25.00;59.40;;;;;;5049519;27;20156;-63
2021/06/11 10:18:13;;;;;;;9.00;7.90;;;25.00;59.80;;;;;;5051165;27;20073;-63
2021/06/11 10:20:40;;;;;;;11.80;8.23;;;25.20;59.40;;;;;;5068644;27;20135;-64
2021/06/11 10:23:09;;;;;;;12.17;7.37;;;25.10;59.80;;;;;;5068937;27;20399;-64
2021/06/11 10:25:40;;;;;;;10.97;7.50;;;25.10;59.00;;;;;;5069074;28;20104;-63
2021/06/11 10:28:07;;;;;;;8.70;7.10;;;25.10;58.60;;;;;;5069124;28;20127;-63
2021/06/11 10:30:33;;;;;;;14.77;9.30;;;25.00;59.10;;;;;;5137142;27;20074;-64
2021/06/11 10:32:59;;;;;;;12.90;10.23;;;24.90;59.70;;;;;;5153286;27;20431;-64
2021/06/11 10:35:47;;;;;;;13.57;11.07;;;24.90;60.30;;;;;;5153925;27;20069;-64
2021/06/11 10:38:34;;;;;;;11.70;8.63;;;24.90;61.50;;;;;;5153198;27;20062;-65
2021/06/11 10:41:06;;;;;;;7.93;5.57;;;25.00;59.30;;;;;;5153232;27;20031;-63
2021/06/11 10:43:38;;;;;;;5.47;4.60;;;25.20;57.90;;;;;;5153539;27;20050;-62
2021/06/11 10:46:24;;;;;;;5.57;4.90;;;25.10;56.60;;;;;;5153834;27;20486;-64
2021/06/11 10:48:56;;;;;;;7.30;5.63;;;25.60;57.30;;;;;;5153258;27;20062;-64
2021/06/11 10:51:38;;;;;;;7.60;6.43;;;25.70;56.20;;;;;;5153009;27;20061;-63
2021/06/11 10:54:19;;;;;;;8.60;6.60;;;25.90;54.60;;;;;;5153552;27;20042;-64
2021/06/11 10:57:11;;;;;;;7.53;6.63;;;25.90;55.90;;;;;;5153011;27;20043;-62
2021/06/11 10:59:50;;;;;;;9.47;7.27;;;25.80;54.90;;;;;;5139960;27;20515;-61
2021/06/11 11:02:17;;;;;;;5.60;4.97;;;25.90;56.10;;;;;;5114902;27;20041;-63
2021/06/11 11:04:50;;;;;;;9.30;7.27;;;26.00;56.30;;;;;;5071729;27;20047;-64
2021/06/11 11:07:29;;;;;;;13.33;8.90;;;25.90;56.40;;;;;;5071093;27;20036;-64
2021/06/11 11:09:57;;;;;;;10.87;9.30;;;26.00;56.30;;;;;;5061735;28;20465;-64
2021/06/11 11:12:27;;;;;;;11.73;10.50;;;26.00;55.80;;;;;;5068237;28;20048;-65
2021/06/11 11:14:54;;;;;;;11.77;8.17;;;25.80;55.50;;;;;;5068235;28;20144;-67
2021/06/11 11:17:21;;;;;;;6.17;5.57;;;25.80;55.40;;;;;;5066918;27;20049;-63
2021/06/11 11:20:03;;;;;;;9.43;8.30;;;25.80;54.40;;;;;;5065817;28;20053;-64
2021/06/11 11:22:35;;;;;;;11.47;10.37;;;25.70;54.60;;;;;;5066254;28;20048;-64
2021/06/11 11:25:14;;;;;;;13.60;9.23;;;25.80;55.60;;;;;;5065602;27;20097;-64
2021/06/11 11:27:49;;;;;;;9.67;8.07;;;25.80;56.10;;;;;;5065339;28;20412;-64
2021/06/11 11:30:19;;;;;;;6.07;5.33;;;25.90;56.00;;;;;;5066333;27;20113;-63
2021/06/11 11:32:44;;;;;;;7.77;5.73;;;26.10;55.00;;;;;;5067288;28;20140;-64
2021/06/11 11:35:13;;;;;;;10.73;7.50;;;26.30;54.60;;;;;;5066969;28;20127;-64
2021/06/11 11:37:39;;;;;;;7.87;7.07;;;26.50;55.10;;;;;;5067428;27;20480;-64
2021/06/11 11:40:06;;;;;;;9.23;7.30;;;26.50;55.30;;;;;;5067141;28;20059;-63
2021/06/11 11:42:32;;;;;;;10.63;7.33;;;26.80;55.60;;;;;;5067082;27;20048;-63
2021/06/11 11:44:58;;;;;;;9.50;6.70;;;26.70;54.20;;;;;;5136038;27;20143;-63
2021/06/11 11:47:24;;;;;;;7.50;5.47;;;26.70;53.40;;;;;;5067907;28;20152;-64
2021/06/11 11:49:50;;;;;;;4.57;4.10;;;26.60;53.00;;;;;;5067661;28;20040;-62
2021/06/11 11:52:16;;;;;;;3.70;3.40;;;26.40;53.20;;;;;;5068616;28;20051;-62
2021/06/11 11:54:42;;;;;;;4.13;3.73;;;26.50;53.00;;;;;;5138637;27;20045;-63
2021/06/11 11:57:07;;;;;;;7.63;5.30;;;26.60;52.90;;;;;;5067783;28;20086;-63
2021/06/11 11:59:33;;;;;;;7.27;5.20;;;26.50;52.70;;;;;;5067247;28;20096;-64
2021/06/11 12:02:00;;;;;;;4.10;2.73;;;26.50;52.40;;;;;;5067651;28;20045;-66
2021/06/11 12:04:26;;;;;;;2.73;1.50;;;26.60;51.10;;;;;;5068626;28;20075;-63
2021/06/11 12:06:53;;;;;;;2.93;2.40;;;26.70;50.10;;;;;;5142228;27;20040;-65
2021/06/11 12:09:19;;;;;;;2.00;1.90;;;27.00;50.60;;;;;;5069136;28;20044;-65
2021/06/11 12:11:45;;;;;;;3.87;1.70;;;27.00;49.10;;;;;;5068352;28;20049;-65
2021/06/11 12:14:11;;;;;;;2.47;1.67;;;26.90;48.80;;;;;;5068092;28;20577;-64
2021/06/11 12:16:37;;;;;;;2.93;2.30;;;27.10;49.60;;;;;;5067520;27;20490;-65
2021/06/11 12:19:03;;;;;;;5.77;3.10;;;27.10;49.70;;;;;;5067415;27;20488;-65
2021/06/11 12:21:29;;;;;;;6.03;3.07;;;27.40;50.00;;;;;;5067720;27;20352;-66
2021/06/11 12:23:57;;;;;;;6.53;4.10;;;27.30;49.50;;;;;;5067959;28;20166;-67
2021/06/11 12:26:30;;;;;;;9.02;5.78;;;27.20;49.60;;;;;;5068804;27;20493;-66
2021/06/11 12:28:56;;;;;;;14.57;8.53;;;27.20;51.00;;;;;;5069132;28;20135;-65
2021/06/11 12:31:22;;;;;;;9.93;7.33;;;26.90;52.50;;;;;;5066782;28;20048;-65
2021/06/11 12:33:48;;;;;;;10.60;8.00;;;26.90;53.60;;;;;;5066964;28;20406;-65
2021/06/11 12:36:15;;;;;;;13.37;9.20;;;26.90;54.70;;;;;;5067176;27;20044;-65
2021/06/11 12:38:44;;;;;;;13.33;10.17;;;26.70;54.90;;;;;;5065964;28;20585;-64
2021/06/11 12:41:14;;;;;;;17.40;9.63;;;26.50;55.50;;;;;;5063188;28;20040;-65
2021/06/11 12:46:24;;;;;;;19.33;12.87;;;26.30;56.90;;;;;;5046962;27;20521;-65
2021/06/11 12:48:54;;;;;;;20.03;14.23;;;26.40;57.40;;;;;;5045846;28;20053;-65
2021/06/11 12:51:21;;;;;;;18.90;14.20;;;26.10;57.20;;;;;;5046944;27;20045;-65